Chatt, Tennessee
Current Conditions -  °F | °C
As of 11:53 AM on Thursday 23 Oct 2014 (Local Time) from KCHA Reporting Station
Scattered Clouds Scattered Clouds  
Wind Chill: 57°   Ceiling: Unl
Heat Index: 57°   Visibility: 10mi
Dew Point: 42°   Wind: 10mph
Humidity: 57%   Direction: 350°N
Pressure: 30.18"   Gusts: NA
Location:  35.0457°N, 85.3094°W
Report Text: KCHA 231553Z 35009KT 10SM SCT250 14/06 A3018 RMK AO2 SLP219 T01390056
Loading
Personal Weather Stations






























Interactive Weather Map
Tropical Storm Tracking
New forecast layout! Learn more

10-Day Weather Forecast

Advertisements
Track Severe Weather on mobile